Flight Track Log - Related Links

Times and Time Zones

All times are in EDT time to prevent confusion due to time zone crossing. See the BJS339 flight status page for this flight to view local times or setup timezone preferences in your user account.

Time Position Orientation Groundspeed Altitude Reporting Facility
EDT Latitude Longitude Course Direction KTS MPH feet Rate Location/Type
Thu 01:05:37 PM 42.1514 -87.9603 278° West 191 220 2,900  Level Chicago Center
Thu 01:06:39 PM 42.1597 -88.0403 278° West 199 229 4,000 677 Climbing Chicago Center
Thu 01:07:41 PM 42.1181 -88.0958 225° Southwest 238 274 4,300 1,210 Climbing Chicago Center
Thu 01:08:43 PM 42.0697 -88.1644 227° Southwest 238 274 6,500 2,419 Climbing Chicago Center
Thu 01:09:45 PM 42.0267 -88.2422 233° Southwest 255 293 9,300 2,903 Climbing Chicago Center
Thu 01:10:47 PM 41.9869 -88.3397 241° Southwest 276 318 12,500 2,903 Climbing Chicago Center
Thu 01:11:49 PM 41.9483 -88.4367 242° Southwest 293 337 15,300 2,496 Climbing Chicago Center
Thu 01:12:52 PM 41.9075 -88.5375 241° Southwest 305 351 17,700 2,208 Climbing Chicago Center
Thu 01:13:54 PM 41.8739 -88.6628 250° West 332 382 19,900 2,081 Climbing Chicago Center
Thu 01:14:56 PM 41.8503 -88.7892 256° West 346 398 22,000 1,935 Climbing Chicago Center
Thu 01:15:58 PM 41.8264 -88.9164 256° West 349 402 23,900 1,887 Climbing Chicago Center
Thu 01:17:00 PM 41.8028 -89.0453 256° West 355 409 25,900 1,839 Climbing Chicago Center
Thu 01:18:02 PM 41.7792 -89.1697 256° West 351 404 27,700 1,694 Climbing Chicago Center
Thu 01:19:04 PM 41.7506 -89.3272 256° West 361 415 29,400 1,440 Climbing Chicago Center
Thu 01:20:07 PM 41.7256 -89.4575 256° West 362 417 30,700 1,152 Climbing Chicago Center
Thu 01:21:09 PM 41.7006 -89.5886 256° West 365 420 31,800 1,065 Climbing Chicago Center
Thu 01:22:11 PM 41.6733 -89.7244 255° West 373 429 32,900 1,016 Climbing Chicago Center
Thu 01:23:13 PM 41.6336 -89.8517 247° West 374 430 33,900 1,113 Climbing Chicago Center
Thu 01:24:15 PM 41.5853 -90.0022 247° West 372 428 35,200 1,161 Climbing Chicago Center
Thu 01:25:17 PM 41.5461 -90.1211 246° West 360 414 36,300 939 Climbing Chicago Center
Thu 01:27:14 PM 41.4772 -90.3361 247° West 347 399 38,000 545 Climbing Kansas City Center
Thu 01:28:24 PM 41.4328 -90.4753 247° West 347 399 38,000  Level Chicago Center
Thu 01:29:26 PM 41.3922 -90.5969 246° West 358 412 38,000  Level Chicago Center
Thu 01:30:28 PM 41.3403 -90.7517 246° West 376 433 38,000  Level Chicago Center
Thu 01:31:30 PM 41.2978 -90.8800 246° West 379 436 38,000  Level Chicago Center
Thu 01:32:32 PM 41.2533 -91.0100 246° West 383 441 38,000  Level Chicago Center
Thu 01:33:34 PM 41.2100 -91.1389 246° West 383 441 38,000  Level Chicago Center
Thu 01:34:36 PM 41.1656 -91.2708 246° West 388 447 38,000  Level Chicago Center
Thu 01:35:38 PM 41.1128 -91.4286 246° West 390 449 38,000  Level Chicago Center
Thu 01:36:41 PM 41.0672 -91.5597 245° Southwest 391 450 38,000  Level Chicago Center
Thu 01:37:43 PM 41.0267 -91.6786 246° West 391 450 38,000  Level Chicago Center
Thu 01:38:45 PM 40.9731 -91.8358 246° West 393 452 38,000  Level Chicago Center
Thu 01:39:47 PM 40.9272 -91.9661 245° Southwest 394 453 38,000  Level Chicago Center
Thu 01:40:49 PM 40.8828 -92.0950 246° West 393 452 38,000  Level Chicago Center
Thu 01:42:52 PM 40.7914 -92.3564 245° Southwest 394 453 38,000  Level Minneapolis Center
Thu 01:43:55 PM 40.7361 -92.5128 245° Southwest 395 455 38,000  Level Chicago Center
Thu 01:44:58 PM 40.6894 -92.6447 245° Southwest 397 457 38,000  Level Chicago Center
Thu 01:46:00 PM 40.6428 -92.7775 245° Southwest 403 464 38,000  Level Chicago Center
Thu 01:46:54 PM 40.5953 -92.9092 245° Southwest 401 461 38,000  Level Kansas City Center
Thu 01:47:55 PM 40.5472 -93.0411 244° Southwest 402 463 38,000  Level Kansas City Center
Thu 01:48:59 PM 40.4997 -93.1722 245° Southwest 402 463 38,000  Level Kansas City Center
Thu 01:49:59 PM 40.4533 -93.3061 246° West 403 464 38,000  Level Kansas City Center
Thu 01:51:02 PM 40.4350 -93.4833 262° West 407 468 38,000  Level Kansas City Center
Thu 01:52:06 PM 40.4228 -93.6331 264° West 413 475 38,000  Level Kansas City Center
Thu 01:53:13 PM 40.4083 -93.8136 264° West 413 475 38,000  Level Minneapolis Center
Thu 01:54:15 PM 40.3964 -93.9644 264° West 414 476 38,000  Level Minneapolis Center
Thu 01:55:17 PM 40.3856 -94.1158 265° West 415 478 38,000  Level Minneapolis Center
Thu 01:56:12 PM 40.3733 -94.2644 264° West 417 480 38,000  Level Kansas City Center
Thu 01:57:14 PM 40.3608 -94.4142 264° West 417 480 38,000  Level Kansas City Center
Thu 01:58:18 PM 40.3481 -94.5628 264° West 417 480 38,000  Level Kansas City Center
Thu 01:59:18 PM 40.3364 -94.7128 264° West 417 480 38,000  Level Kansas City Center
Thu 02:00:27 PM 40.3203 -94.9042 264° West 416 479 38,000  Level Minneapolis Center
Thu 02:01:30 PM 40.3064 -95.0556 263° West 416 479 38,000  Level Minneapolis Center
Thu 02:02:32 PM 40.2933 -95.2069 264° West 416 479 38,000  Level Minneapolis Center
Thu 02:03:34 PM 40.2789 -95.3608 263° West 418 481 38,000  Level Minneapolis Center
Thu 02:04:36 PM 40.2650 -95.5139 263° West 420 483 38,000  Level Minneapolis Center
Thu 02:05:38 PM 40.2506 -95.6656 263° West 421 484 38,000  Level Minneapolis Center
Thu 02:06:40 PM 40.2339 -95.8458 263° West 420 483 38,000  Level Minneapolis Center
Thu 02:07:42 PM 40.2197 -95.9964 263° West 420 483 38,000  Level Minneapolis Center
Thu 02:08:44 PM 40.2047 -96.1492 263° West 420 483 38,000  Level Minneapolis Center
Thu 02:09:46 PM 40.1836 -96.2994 260° West 419 482 38,000  Level Minneapolis Center
Thu 02:10:48 PM 40.1461 -96.4494 252° West 421 484 38,000  Level Minneapolis Center
Thu 02:11:51 PM 40.1144 -96.5972 254° West 421 484 38,000  Level Minneapolis Center
Thu 02:12:53 PM 40.0825 -96.7453 254° West 421 484 38,000  Level Minneapolis Center
Thu 02:13:55 PM 40.0436 -96.9203 254° West 421 484 38,000  Level Minneapolis Center
Thu 02:14:57 PM 40.0117 -97.0675 254° West 421 484 38,000  Level Minneapolis Center
Thu 02:15:59 PM 39.9778 -97.2158 253° West 421 484 38,000  Level Minneapolis Center
Thu 02:17:01 PM 39.9450 -97.3642 254° West 422 486 38,000  Level Minneapolis Center
Thu 02:18:03 PM 39.9114 -97.5119 254° West 423 487 38,000  Level Minneapolis Center
Thu 02:19:05 PM 39.8778 -97.6606 254° West 423 487 38,000  Level Minneapolis Center
Thu 02:20:07 PM 39.8364 -97.8378 253° West 423 487 38,000  Level Minneapolis Center
Thu 02:21:09 PM 39.8031 -97.9817 253° West 424 488 38,000  Level Minneapolis Center
Thu 02:22:12 PM 39.7703 -98.1306 254° West 424 488 38,000  Level Minneapolis Center
Thu 02:23:14 PM 39.7347 -98.2797 253° West 426 490 38,000  Level Minneapolis Center
Thu 02:24:16 PM 39.7011 -98.4286 254° West 426 490 38,000  Level Minneapolis Center
Thu 02:25:18 PM 39.6667 -98.5775 253° West 427 491 38,000  Level Minneapolis Center
Thu 02:26:20 PM 39.6281 -98.7606 255° West 430 495 38,000  Level Minneapolis Center
Thu 02:27:09 PM 39.5942 -98.8656 247° West 432 497 38,000  Level Denver Center
Thu 02:28:12 PM 39.5550 -99.0314 253° West 432 497 38,000  Level Denver Center
Thu 02:29:14 PM 39.5203 -99.1731 252° West 432 497 38,000  Level Denver Center
Thu 02:30:16 PM 39.4800 -99.3372 252° West 431 496 38,000  Level Denver Center
Thu 02:31:18 PM 39.4458 -99.4772 253° West 431 496 38,000  Level Denver Center
Thu 02:32:20 PM 39.4114 -99.6161 252° West 430 495 38,000  Level Denver Center
Thu 02:33:22 PM 39.3706 -99.7792 252° West 430 495 38,000  Level Denver Center
Thu 02:34:24 PM 39.3364 -99.9183 252° West 428 493 38,000  Level Denver Center
Thu 02:35:26 PM 39.2950 -100.0781 252° West 426 490 38,000  Level Denver Center
Thu 02:36:28 PM 39.2600 -100.2186 252° West 424 488 38,000  Level Denver Center
Thu 02:37:31 PM 39.2247 -100.3844 255° West 426 490 38,000  Level Denver Center
Thu 02:38:33 PM 39.1944 -100.5281 255° West 430 495 38,000  Level Denver Center
Thu 02:39:35 PM 39.1589 -100.6964 255° West 433 498 38,000  Level Denver Center
Thu 02:40:37 PM 39.1286 -100.8383 255° West 433 498 38,000  Level Denver Center
Thu 02:41:39 PM 39.0922 -101.0031 254° West 432 497 38,000  Level Denver Center
Thu 02:42:41 PM 39.0622 -101.1464 255° West 432 497 38,000  Level Denver Center
Thu 02:43:43 PM 39.0269 -101.3064 254° West 432 497 38,000  Level Denver Center
Thu 02:44:45 PM 38.9964 -101.4461 254° West 430 495 38,000  Level Denver Center
Thu 02:45:47 PM 38.9603 -101.6092 254° West 429 494 38,000  Level Denver Center
Thu 02:46:49 PM 38.9289 -101.7483 254° West 427 491 38,000  Level Denver Center
Thu 02:47:52 PM 38.8925 -101.9108 254° West 426 490 38,000  Level Denver Center
Thu 02:48:54 PM 38.8614 -102.0497 254° West 426 490 38,000  Level Denver Center
Thu 02:49:56 PM 38.8247 -102.2125 254° West 426 490 38,000  Level Denver Center
Thu 02:50:58 PM 38.7922 -102.3500 253° West 425 489 38,000  Level Denver Center
Thu 02:52:00 PM 38.7561 -102.5119 254° West 425 489 38,000  Level Denver Center
Thu 02:53:02 PM 38.7231 -102.6503 253° West 425 489 38,000  Level Denver Center
Thu 02:54:04 PM 38.6867 -102.8072 254° West 425 489 38,000  Level Denver Center
Thu 02:55:06 PM 38.6522 -102.9511 253° West 424 488 38,000  Level Denver Center
Thu 02:56:08 PM 38.6189 -103.0933 253° West 421 484 38,000  Level Denver Center
Thu 02:57:10 PM 38.5853 -103.2369 253° West 420 483 38,000  Level Denver Center
Thu 02:58:12 PM 38.5458 -103.4028 253° West 419 482 38,000  Level Denver Center
Thu 02:59:14 PM 38.5139 -103.5344 253° West 422 486 38,000  Level Denver Center
Thu 03:00:17 PM 38.4792 -103.6781 253° West 425 489 38,000  Level Denver Center
Thu 03:01:19 PM 38.4369 -103.8522 253° West 427 491 38,000  Level Denver Center
Thu 03:02:21 PM 38.4017 -103.9950 253° West 428 493 38,000  Level Denver Center
Thu 03:03:23 PM 38.3669 -104.1378 253° West 427 491 38,000  Level Denver Center
Thu 03:04:25 PM 38.3328 -104.2728 252° West 423 487 38,000  Level Denver Center
Thu 03:05:27 PM 38.2956 -104.4203 252° West 423 487 38,000  Level Denver Center
Thu 03:06:29 PM 38.2339 -104.5803 244° Southwest 422 486 38,000  Level Denver Center
Thu 03:07:31 PM 38.1811 -104.7125 243° Southwest 422 486 38,000  Level Denver Center
Thu 03:08:33 PM 38.1281 -104.8433 243° Southwest 422 486 38,000  Level Denver Center
Thu 03:09:35 PM 38.0747 -104.9758 243° Southwest 422 486 38,000  Level Denver Center
Thu 03:10:37 PM 38.0225 -105.1067 243° Southwest 422 486 38,000  Level Denver Center
Thu 03:11:39 PM 37.9589 -105.2625 243° Southwest 421 484 38,000  Level Denver Center
Thu 03:12:42 PM 37.9042 -105.3922 242° Southwest 420 483 38,000  Level Denver Center
Thu 03:13:44 PM 37.8528 -105.5208 243° Southwest 419 482 38,000  Level Denver Center
Thu 03:14:46 PM 37.7992 -105.6506 242° Southwest 417 480 38,000  Level Denver Center
Thu 03:15:48 PM 37.7447 -105.7786 242° Southwest 417 480 38,000  Level Denver Center
Thu 03:16:50 PM 37.6994 -105.9094 246° West 415 478 38,000  Level Denver Center
Thu 03:17:52 PM 37.6636 -106.0717 254° West 404 465 38,000  Level Denver Center
Thu 03:18:54 PM 37.6353 -106.1967 254° West 404 465 38,000  Level Denver Center
Thu 03:19:56 PM 37.6011 -106.3469 254° West 403 464 38,000  Level Denver Center
Thu 03:20:58 PM 37.5733 -106.4781 255° West 403 464 38,000  Level Denver Center
Thu 03:22:01 PM 37.5364 -106.6306 253° West 405 466 38,000  Level Denver Center
Thu 03:23:03 PM 37.5067 -106.7619 254° West 405 466 38,000  Level Denver Center
Thu 03:24:05 PM 37.4711 -106.9167 254° West 408 470 38,000  Level Denver Center
Thu 03:25:07 PM 37.4400 -107.0483 253° West 409 471 38,000  Level Denver Center
Thu 03:26:09 PM 37.4042 -107.2028 254° West 410 472 38,000  Level Denver Center
Thu 03:27:11 PM 37.3739 -107.3342 254° West 410 472 38,000  Level Denver Center
Thu 03:28:14 PM 37.3381 -107.4856 253° West 409 471 38,000  Level Denver Center
Thu 03:29:16 PM 37.3064 -107.6158 253° West 408 470 38,000  Level Denver Center
Thu 03:30:18 PM 37.2706 -107.7672 253° West 407 468 38,000  Level Denver Center
Thu 03:31:20 PM 37.2389 -107.8958 253° West 407 468 38,000  Level Denver Center
Thu 03:32:22 PM 37.2033 -108.0475 254° West 407 468 38,000  Level Denver Center
Thu 03:33:24 PM 37.1719 -108.1758 253° West 405 466 38,000  Level Denver Center
Thu 03:34:26 PM 37.1356 -108.3253 253° West 402 463 38,000  Level Denver Center
Thu 03:35:28 PM 37.1039 -108.4542 253° West 402 463 38,000  Level Denver Center
Thu 03:36:30 PM 37.0672 -108.6031 253° West 403 464 38,000  Level Denver Center
Thu 03:37:32 PM 37.0356 -108.7300 253° West 403 464 38,000  Level Denver Center
Thu 03:38:35 PM 36.9981 -108.8767 252° West 401 461 38,000  Level Denver Center
Thu 03:39:37 PM 36.9658 -109.0042 252° West 401 461 38,000  Level Denver Center
Thu 03:40:39 PM 36.9286 -109.1539 253° West 402 463 38,000  Level Denver Center
Thu 03:41:41 PM 36.8958 -109.2833 252° West 406 467 38,000  Level Denver Center
Thu 03:42:43 PM 36.8564 -109.4339 252° West 410 472 38,000  Level Denver Center
Thu 03:43:45 PM 36.8239 -109.5622 252° West 409 471 38,000  Level Denver Center
Thu 03:44:47 PM 36.7897 -109.6914 252° West 409 471 38,000  Level Denver Center
Thu 03:45:49 PM 36.7503 -109.8414 252° West 409 471 38,000  Level Denver Center
Thu 03:46:51 PM 36.7181 -109.9683 252° West 406 467 38,000  Level Denver Center
Thu 03:47:53 PM 36.6775 -110.1186 251° West 409 471 38,000  Level Denver Center
Thu 03:48:55 PM 36.6433 -110.2494 252° West 408 470 38,000  Level Denver Center
Thu 03:49:58 PM 36.6078 -110.3833 252° West 408 470 38,000  Level Denver Center
Thu 03:51:00 PM 36.5722 -110.5158 252° West 407 468 38,000  Level Denver Center
Thu 03:52:02 PM 36.5286 -110.6769 251° West 407 468 38,000  Level Denver Center
Thu 03:53:04 PM 36.4917 -110.8114 251° West 408 470 38,000  Level Denver Center
Thu 03:54:06 PM 36.4575 -110.9433 252° West 407 468 38,000  Level Denver Center
Thu 03:55:08 PM 36.4200 -111.0764 251° West 407 468 38,000  Level Denver Center
Thu 03:56:11 PM 36.3842 -111.2094 252° West 407 468 38,000  Level Denver Center
Thu 03:57:12 PM 36.3461 -111.3433 251° West 408 470 38,000  Level Denver Center
Thu 03:58:14 PM 36.3017 -111.5056 251° West 408 470 38,000 -48 Level Denver Center
Thu 03:59:16 PM 36.2639 -111.6392 251° West 409 471 37,900 -486 Descending Denver Center
Thu 04:00:05 PM 36.2336 -111.7475 251° West 412 474 37,100 -973 Descending Los Angeles Center
Thu 04:01:07 PM 36.1958 -111.8794 251° West 411 473 36,100 -532 Descending Los Angeles Center
Thu 04:02:09 PM 36.1572 -112.0183 251° West 407 468 36,000 -48 Descending Los Angeles Center
Thu 04:03:11 PM 36.1194 -112.1508 251° West 406 467 36,000  Level Los Angeles Center
Thu 04:04:13 PM 36.0825 -112.2797 251° West 413 475 36,000  Level Los Angeles Center
Thu 04:05:16 PM 36.0369 -112.4400 251° West 413 475 36,000  Level Los Angeles Center
Thu 04:06:18 PM 35.9981 -112.5750 250° West 414 476 36,000  Level Los Angeles Center
Thu 04:07:20 PM 35.9592 -112.7092 250° West 415 478 36,000  Level Los Angeles Center
Thu 04:08:22 PM 35.9194 -112.8467 250° West 415 478 36,000  Level Los Angeles Center
Thu 04:09:24 PM 35.8808 -112.9803 250° West 416 479 36,000  Level Los Angeles Center
Thu 04:10:27 PM 35.8408 -113.1142 250° West 416 479 36,000  Level Los Angeles Center
Thu 04:11:29 PM 35.7933 -113.2744 250° West 417 480 36,000  Level Los Angeles Center
Thu 04:12:31 PM 35.7553 -113.4083 251° West 417 480 36,000  Level Los Angeles Center
Thu 04:13:33 PM 35.7142 -113.5425 249° West 421 484 36,000  Level Los Angeles Center
Thu 04:14:35 PM 35.6739 -113.6772 250° West 421 484 36,000  Level Los Angeles Center
Thu 04:15:37 PM 35.6328 -113.8106 249° West 421 484 36,000  Level Los Angeles Center
Thu 04:16:41 PM 35.5836 -113.9731 250° West 422 486 36,000  Level Los Angeles Center
Thu 04:17:42 PM 35.5433 -114.1061 250° West 420 483 36,000  Level Los Angeles Center
Thu 04:18:44 PM 35.5025 -114.2408 250° West 422 486 36,000  Level Los Angeles Center
Thu 04:19:46 PM 35.4614 -114.3717 249° West 422 486 36,000  Level Los Angeles Center
Thu 04:20:48 PM 35.4114 -114.5347 249° West 424 488 36,000 -96 Level Los Angeles Center
Thu 04:21:51 PM 35.3686 -114.6708 249° West 425 489 35,800 -768 Descending Los Angeles Center
Thu 04:22:53 PM 35.3253 -114.8092 249° West 431 496 34,400 -871 Descending Los Angeles Center
Thu 04:23:55 PM 35.2853 -114.9428 250° West 424 488 34,000 -242 Descending Los Angeles Center
Thu 04:24:57 PM 35.2422 -115.0767 249° West 422 486 33,900 -532 Descending Los Angeles Center
Thu 04:25:59 PM 35.1992 -115.2169 249° West 432 497 32,900 -912 Descending Los Angeles Center
Thu 04:27:02 PM 35.1517 -115.3653 249° West 434 499 32,000 -432 Descending Los Angeles Center
Thu 04:28:04 PM 35.1103 -115.4975 249° West 424 488 32,000  Level Los Angeles Center
Thu 04:29:06 PM 35.0664 -115.6336 249° West 425 489 32,000  Level Los Angeles Center
Thu 04:30:08 PM 35.0225 -115.7708 249° West 431 496 32,000 -484 Level Los Angeles Center
Thu 04:31:10 PM 34.9692 -115.9353 248° West 433 498 31,000 -1,296 Descending Los Angeles Center
Thu 04:32:13 PM 34.9247 -116.0717 248° West 435 501 29,300 -1,728 Descending Los Angeles Center
Thu 04:33:15 PM 34.8808 -116.2031 248° West 425 489 27,400 -1,742 Descending Los Angeles Center
Thu 04:34:17 PM 34.8400 -116.3322 249° West 414 476 25,700 -1,597 Descending Los Angeles Center
Thu 04:35:19 PM 34.7981 -116.4633 249° West 413 475 24,100 -1,694 Descending Los Angeles Center
Thu 04:36:21 PM 34.7822 -116.6233 263° West 402 463 22,200 -1,645 Descending Los Angeles Center
Thu 04:37:23 PM 34.7683 -116.7558 263° West 396 456 20,700 -1,248 Descending Los Angeles Center
Thu 04:38:26 PM 34.7553 -116.8878 263° West 395 455 19,600 -1,008 Descending Los Angeles Center
Thu 04:39:28 PM 34.7414 -117.0181 263° West 389 448 18,600 -968 Descending Los Angeles Center
Thu 04:40:30 PM 34.7281 -117.1464 263° West 386 444 17,600 -871 Descending Los Angeles Center
Thu 04:41:32 PM 34.7147 -117.2753 263° West 385 443 16,800 -823 Descending Los Angeles Center
Thu 04:42:34 PM 34.7019 -117.4017 263° West 379 436 15,900 -1,344 Descending Los Angeles Center
Thu 04:43:37 PM 34.6867 -117.5511 263° West 373 429 14,000 -1,152 Descending Los Angeles Center
Thu 04:44:39 PM 34.6694 -117.6686 260° West 356 410 13,500 -484 Descending Los Angeles Center
Thu 04:45:41 PM 34.6383 -117.7842 252° West 362 417 13,000 -581 Descending Los Angeles Center
Thu 04:46:43 PM 34.6089 -117.8992 253° West 358 412 12,300 -1,016 Descending Los Angeles Center
Thu 04:47:45 PM 34.5822 -118.0008 252° West 314 361 10,900 -1,392 Descending Los Angeles Center
Thu 04:48:48 PM 34.5578 -118.0881 251° West 275 316 9,400 -1,392 Descending Los Angeles Center
Thu 04:49:50 PM 34.5333 -118.1850 253° West 273 314 8,000 -677 Descending Los Angeles Center
Thu 04:50:52 PM 34.5056 -118.2675 248° West 271 312 8,000  Level Los Angeles Center
Thu 04:51:54 PM 34.4308 -118.3103 205° Southwest 279 321 8,000  Level Los Angeles Center
Thu 04:52:56 PM 34.3536 -118.3019 175° South 276 318 8,000 -182 Level Los Angeles Center
Thu 04:53:33 PM 34.3000 -118.3000 178° South 263 303 7,700 -619 Descending Southern California TRACON
Thu 04:54:33 PM 34.2333 -118.2833 168° South 233 268 7,000 -750 Descending Southern California TRACON
Thu 04:55:33 PM 34.1833 -118.2667 165° South 231 266 6,200 -700 Descending Southern California TRACON
Thu 04:56:33 PM 34.1333 -118.3000 209° Southwest 206 237 5,600 -978 Descending Southern California TRACON
Thu 04:57:05 PM 34.1189 -118.3203 229° Southwest 210 242 4,700 -1,979 Descending Los Angeles Center
Thu 04:58:07 PM 34.0781 -118.3719 226° Southwest 188 216 2,500 -1,645 Descending Los Angeles Center
Thu 04:59:09 PM 34.0531 -118.4064 229° Southwest 162 186 1,300 -960 Descending Los Angeles Center
Thu 05:00:12 PM 34.0314 -118.4336 226° Southwest 133 153 500 -576 Descending Los Angeles Center
Thu 05:01:14 PM 34.0081 -118.4653 228° Southwest 124 143 100 -387 Descending Los Angeles Center
Thu 05:03:00 PM 34.0000 -118.4500 North  Level FlightAware Approximate

Login

Don't have an account? Register now (free) for customized features, flight alerts, and more!